sensor_id;sensor_type;location;lat;lon;timestamp;pressure;altitude;pressure_sealevel;temperature;humidity
57412;BME280;43247;52.828;-8.980;2023-05-09T00:00:22;101290.17;;;14.20;83.86
57412;BME280;43247;52.828;-8.980;2023-05-09T00:01:22;101288.48;;;14.20;83.87
57412;BME280;43247;52.828;-8.980;2023-05-09T00:02:22;101288.67;;;14.21;83.86
57412;BME280;43247;52.828;-8.980;2023-05-09T00:03:23;101286.73;;;14.20;83.92
57412;BME280;43247;52.828;-8.980;2023-05-09T00:04:23;101285.23;;;14.21;83.87
57412;BME280;43247;52.828;-8.980;2023-05-09T00:05:23;101283.73;;;14.21;83.85
57412;BME280;43247;52.828;-8.980;2023-05-09T00:06:23;101285.13;;;14.20;83.89
57412;BME280;43247;52.828;-8.980;2023-05-09T00:07:24;101284.23;;;14.20;83.88
57412;BME280;43247;52.828;-8.980;2023-05-09T00:08:25;101285.93;;;14.21;83.90
57412;BME280;43247;52.828;-8.980;2023-05-09T00:09:25;101285.41;;;14.21;83.89
57412;BME280;43247;52.828;-8.980;2023-05-09T00:10:26;101282.81;;;14.21;83.82
57412;BME280;43247;52.828;-8.980;2023-05-09T00:11:26;101285.29;;;14.22;83.77
57412;BME280;43247;52.828;-8.980;2023-05-09T00:12:26;101282.67;;;14.22;83.74
57412;BME280;43247;52.828;-8.980;2023-05-09T00:13:26;101281.78;;;14.22;83.86
57412;BME280;43247;52.828;-8.980;2023-05-09T00:14:27;101282.06;;;14.23;83.85
57412;BME280;43247;52.828;-8.980;2023-05-09T00:15:28;101281.06;;;14.23;83.79
57412;BME280;43247;52.828;-8.980;2023-05-09T00:16:28;101284.14;;;14.23;83.81
57412;BME280;43247;52.828;-8.980;2023-05-09T00:17:29;101284.49;;;14.23;83.81
57412;BME280;43247;52.828;-8.980;2023-05-09T00:18:29;101282.39;;;14.24;83.80
57412;BME280;43247;52.828;-8.980;2023-05-09T00:19:29;101283.15;;;14.23;83.76
57412;BME280;43247;52.828;-8.980;2023-05-09T00:20:30;101282.05;;;14.23;83.73
57412;BME280;43247;52.828;-8.980;2023-05-09T00:21:30;101281.11;;;14.23;83.75
57412;BME280;43247;52.828;-8.980;2023-05-09T00:22:30;101282.39;;;14.24;83.75
57412;BME280;43247;52.828;-8.980;2023-05-09T00:23:30;101278.55;;;14.24;83.72
57412;BME280;43247;52.828;-8.980;2023-05-09T00:24:30;101276.11;;;14.23;83.77
57412;BME280;43247;52.828;-8.980;2023-05-09T00:25:30;101274.26;;;14.24;83.77
57412;BME280;43247;52.828;-8.980;2023-05-09T00:26:31;101271.62;;;14.24;83.70
57412;BME280;43247;52.828;-8.980;2023-05-09T00:27:31;101272.14;;;14.24;83.69
57412;BME280;43247;52.828;-8.980;2023-05-09T00:28:31;101270.78;;;14.24;83.76
57412;BME280;43247;52.828;-8.980;2023-05-09T00:29:32;101269.25;;;14.24;83.73
57412;BME280;43247;52.828;-8.980;2023-05-09T00:30:32;101265.89;;;14.25;83.77
57412;BME280;43247;52.828;-8.980;2023-05-09T00:31:33;101267.99;;;14.25;83.79
57412;BME280;43247;52.828;-8.980;2023-05-09T00:32:33;101265.43;;;14.25;83.76
57412;BME280;43247;52.828;-8.980;2023-05-09T00:33:33;101264.50;;;14.26;83.73
57412;BME280;43247;52.828;-8.980;2023-05-09T00:34:34;101264.89;;;14.25;83.76
57412;BME280;43247;52.828;-8.980;2023-05-09T00:35:34;101263.36;;;14.26;83.78
57412;BME280;43247;52.828;-8.980;2023-05-09T00:36:34;101259.32;;;14.26;83.74
57412;BME280;43247;52.828;-8.980;2023-05-09T00:37:35;101259.64;;;14.26;83.75
57412;BME280;43247;52.828;-8.980;2023-05-09T00:38:35;101258.44;;;14.26;83.70
57412;BME280;43247;52.828;-8.980;2023-05-09T00:39:35;101259.22;;;14.26;83.76
57412;BME280;43247;52.828;-8.980;2023-05-09T00:40:35;101259.91;;;14.27;83.80
57412;BME280;43247;52.828;-8.980;2023-05-09T00:41:36;101260.02;;;14.27;83.72
57412;BME280;43247;52.828;-8.980;2023-05-09T00:42:37;101260.26;;;14.27;83.73
57412;BME280;43247;52.828;-8.980;2023-05-09T00:43:37;101261.02;;;14.27;83.76
57412;BME280;43247;52.828;-8.980;2023-05-09T00:44:37;101261.32;;;14.27;83.84
57412;BME280;43247;52.828;-8.980;2023-05-09T00:45:38;101258.15;;;14.27;83.83
57412;BME280;43247;52.828;-8.980;2023-05-09T00:46:38;101260.01;;;14.27;83.81
57412;BME280;43247;52.828;-8.980;2023-05-09T00:47:38;101259.03;;;14.27;83.80
57412;BME280;43247;52.828;-8.980;2023-05-09T00:48:38;101257.07;;;14.26;83.84
57412;BME280;43247;52.828;-8.980;2023-05-09T00:49:38;101257.86;;;14.26;83.87
57412;BME280;43247;52.828;-8.980;2023-05-09T00:50:38;101260.13;;;14.27;83.82
57412;BME280;43247;52.828;-8.980;2023-05-09T00:51:40;101260.21;;;14.27;83.79
57412;BME280;43247;52.828;-8.980;2023-05-09T00:52:40;101262.48;;;14.27;83.86
57412;BME280;43247;52.828;-8.980;2023-05-09T00:53:39;101261.52;;;14.27;83.84
57412;BME280;43247;52.828;-8.980;2023-05-09T00:54:40;101264.03;;;14.27;83.89
57412;BME280;43247;52.828;-8.980;2023-05-09T00:55:41;101262.63;;;14.27;83.84
57412;BME280;43247;52.828;-8.980;2023-05-09T00:56:41;101264.21;;;14.28;83.79
57412;BME280;43247;52.828;-8.980;2023-05-09T00:57:42;101264.42;;;14.28;83.80
57412;BME280;43247;52.828;-8.980;2023-05-09T00:58:42;101262.29;;;14.28;83.83
57412;BME280;43247;52.828;-8.980;2023-05-09T00:59:42;101262.95;;;14.28;83.87
57412;BME280;43247;52.828;-8.980;2023-05-09T01:00:42;101262.84;;;14.28;83.81
57412;BME280;43247;52.828;-8.980;2023-05-09T01:01:43;101261.44;;;14.28;83.80
57412;BME280;43247;52.828;-8.980;2023-05-09T01:02:45;101260.45;;;14.28;83.81
57412;BME280;43247;52.828;-8.980;2023-05-09T01:03:44;101261.71;;;14.28;83.78
57412;BME280;43247;52.828;-8.980;2023-05-09T01:04:44;101263.00;;;14.28;83.66
57412;BME280;43247;52.828;-8.980;2023-05-09T01:05:53;101263.06;;;14.28;83.80
57412;BME280;43247;52.828;-8.980;2023-05-09T01:06:53;101264.10;;;14.28;83.98
57412;BME280;43247;52.828;-8.980;2023-05-09T01:07:51;101263.03;;;14.28;83.87
57412;BME280;43247;52.828;-8.980;2023-05-09T01:08:52;101261.65;;;14.28;83.88
57412;BME280;43247;52.828;-8.980;2023-05-09T01:09:52;101260.10;;;14.28;83.77
57412;BME280;43247;52.828;-8.980;2023-05-09T01:10:49;101258.91;;;14.28;83.76
57412;BME280;43247;52.828;-8.980;2023-05-09T01:11:53;101256.10;;;14.29;83.63
57412;BME280;43247;52.828;-8.980;2023-05-09T01:12:52;101254.74;;;14.29;83.64
57412;BME280;43247;52.828;-8.980;2023-05-09T01:13:54;101254.44;;;14.29;83.58
57412;BME280;43247;52.828;-8.980;2023-05-09T01:14:54;101254.70;;;14.30;83.52
57412;BME280;43247;52.828;-8.980;2023-05-09T01:15:51;101254.81;;;14.30;83.49
57412;BME280;43247;52.828;-8.980;2023-05-09T01:16:52;101254.32;;;14.30;83.49
57412;BME280;43247;52.828;-8.980;2023-05-09T01:17:52;101254.83;;;14.30;83.50
57412;BME280;43247;52.828;-8.980;2023-05-09T01:18:52;101255.18;;;14.30;83.53
57412;BME280;43247;52.828;-8.980;2023-05-09T01:19:57;101253.93;;;14.30;83.46
57412;BME280;43247;52.828;-8.980;2023-05-09T01:20:52;101254.65;;;14.30;83.53
57412;BME280;43247;52.828;-8.980;2023-05-09T01:21:50;101255.00;;;14.30;83.49
57412;BME280;43247;52.828;-8.980;2023-05-09T01:22:59;101254.25;;;14.30;83.49
57412;BME280;43247;52.828;-8.980;2023-05-09T01:25:05;101250.85;;;14.31;83.53
57412;BME280;43247;52.828;-8.980;2023-05-09T01:25:56;101251.19;;;14.31;83.49
57412;BME280;43247;52.828;-8.980;2023-05-09T01:27:06;101250.99;;;14.31;83.50
57412;BME280;43247;52.828;-8.980;2023-05-09T01:27:59;101250.54;;;14.31;83.51
57412;BME280;43247;52.828;-8.980;2023-05-09T01:29:56;101246.98;;;14.31;83.59
57412;BME280;43247;52.828;-8.980;2023-05-09T01:30:54;101247.19;;;14.30;83.58
57412;BME280;43247;52.828;-8.980;2023-05-09T01:31:54;101247.12;;;14.30;83.58
57412;BME280;43247;52.828;-8.980;2023-05-09T01:32:58;101247.69;;;14.30;83.63
57412;BME280;43247;52.828;-8.980;2023-05-09T01:33:57;101248.19;;;14.30;83.63
57412;BME280;43247;52.828;-8.980;2023-05-09T01:34:55;101246.39;;;14.30;83.61
57412;BME280;43247;52.828;-8.980;2023-05-09T01:35:58;101247.10;;;14.30;83.67
57412;BME280;43247;52.828;-8.980;2023-05-09T01:36:56;101247.46;;;14.30;83.61
57412;BME280;43247;52.828;-8.980;2023-05-09T01:37:55;101247.98;;;14.30;83.65
57412;BME280;43247;52.828;-8.980;2023-05-09T01:38:56;101251.18;;;14.30;83.70
57412;BME280;43247;52.828;-8.980;2023-05-09T01:39:57;101249.07;;;14.30;83.64
57412;BME280;43247;52.828;-8.980;2023-05-09T01:40:56;101249.45;;;14.29;83.65
57412;BME280;43247;52.828;-8.980;2023-05-09T01:41:57;101249.59;;;14.29;83.62
57412;BME280;43247;52.828;-8.980;2023-05-09T01:42:57;101248.12;;;14.28;83.76
57412;BME280;43247;52.828;-8.980;2023-05-09T01:43:56;101247.07;;;14.24;83.65
57412;BME280;43247;52.828;-8.980;2023-05-09T01:44:57;101247.72;;;14.23;83.43
57412;BME280;43247;52.828;-8.980;2023-05-09T01:45:56;101246.48;;;14.22;83.22
57412;BME280;43247;52.828;-8.980;2023-05-09T01:46:57;101244.25;;;14.21;83.18
57412;BME280;43247;52.828;-8.980;2023-05-09T01:47:56;101243.83;;;14.20;83.10
57412;BME280;43247;52.828;-8.980;2023-05-09T01:48:57;101243.22;;;14.21;83.18
57412;BME280;43247;52.828;-8.980;2023-05-09T01:49:57;101241.47;;;14.21;83.20
57412;BME280;43247;52.828;-8.980;2023-05-09T01:50:58;101241.97;;;14.21;83.30
57412;BME280;43247;52.828;-8.980;2023-05-09T01:51:58;101241.63;;;14.21;83.23
57412;BME280;43247;52.828;-8.980;2023-05-09T01:53:00;101242.61;;;14.20;83.14
57412;BME280;43247;52.828;-8.980;2023-05-09T01:53:59;101240.46;;;14.21;83.08
57412;BME280;43247;52.828;-8.980;2023-05-09T01:55:00;101242.08;;;14.21;83.18
57412;BME280;43247;52.828;-8.980;2023-05-09T01:55:59;101239.34;;;14.21;83.12
57412;BME280;43247;52.828;-8.980;2023-05-09T01:57:00;101238.47;;;14.22;83.13
57412;BME280;43247;52.828;-8.980;2023-05-09T01:58:00;101239.19;;;14.23;83.15
57412;BME280;43247;52.828;-8.980;2023-05-09T01:59:01;101237.49;;;14.23;83.20
57412;BME280;43247;52.828;-8.980;2023-05-09T02:00:01;101237.55;;;14.22;83.05
57412;BME280;43247;52.828;-8.980;2023-05-09T02:01:01;101235.73;;;14.20;83.05
57412;BME280;43247;52.828;-8.980;2023-05-09T02:02:02;101236.55;;;14.15;82.75
57412;BME280;43247;52.828;-8.980;2023-05-09T02:03:01;101235.00;;;14.14;82.68
57412;BME280;43247;52.828;-8.980;2023-05-09T02:04:03;101233.37;;;14.14;82.68
57412;BME280;43247;52.828;-8.980;2023-05-09T02:05:01;101232.73;;;14.16;82.73
57412;BME280;43247;52.828;-8.980;2023-05-09T02:06:02;101230.52;;;14.15;82.68
57412;BME280;43247;52.828;-8.980;2023-05-09T02:07:02;101229.92;;;14.16;82.62
57412;BME280;43247;52.828;-8.980;2023-05-09T02:08:02;101230.44;;;14.17;82.44
57412;BME280;43247;52.828;-8.980;2023-05-09T02:09:02;101229.23;;;14.18;82.63
57412;BME280;43247;52.828;-8.980;2023-05-09T02:10:05;101226.44;;;14.17;82.75
57412;BME280;43247;52.828;-8.980;2023-05-09T02:11:03;101227.18;;;14.19;82.62
57412;BME280;43247;52.828;-8.980;2023-05-09T02:12:04;101226.07;;;14.19;82.72
57412;BME280;43247;52.828;-8.980;2023-05-09T02:13:04;101226.89;;;14.20;82.79
57412;BME280;43247;52.828;-8.980;2023-05-09T02:14:04;101225.93;;;14.20;82.72
57412;BME280;43247;52.828;-8.980;2023-05-09T02:15:06;101223.28;;;14.19;82.30
57412;BME280;43247;52.828;-8.980;2023-05-09T02:16:06;101225.54;;;14.18;82.48
57412;BME280;43247;52.828;-8.980;2023-05-09T02:17:05;101225.49;;;14.18;82.38
57412;BME280;43247;52.828;-8.980;2023-05-09T02:18:06;101224.02;;;14.18;82.47
57412;BME280;43247;52.828;-8.980;2023-05-09T02:19:06;101222.58;;;14.18;82.41
57412;BME280;43247;52.828;-8.980;2023-05-09T02:20:08;101225.18;;;14.17;82.46
57412;BME280;43247;52.828;-8.980;2023-05-09T02:21:07;101222.59;;;14.16;82.47
57412;BME280;43247;52.828;-8.980;2023-05-09T02:22:07;101222.31;;;14.17;82.54
57412;BME280;43247;52.828;-8.980;2023-05-09T02:23:07;101220.19;;;14.18;82.56
57412;BME280;43247;52.828;-8.980;2023-05-09T02:24:08;101219.03;;;14.18;82.53
57412;BME280;43247;52.828;-8.980;2023-05-09T02:25:10;101216.74;;;14.19;82.81
57412;BME280;43247;52.828;-8.980;2023-05-09T02:26:08;101216.66;;;14.22;82.98
57412;BME280;43247;52.828;-8.980;2023-05-09T02:27:09;101217.26;;;14.23;82.98
57412;BME280;43247;52.828;-8.980;2023-05-09T02:28:09;101216.66;;;14.24;83.05
57412;BME280;43247;52.828;-8.980;2023-05-09T02:29:09;101216.92;;;14.24;83.03
57412;BME280;43247;52.828;-8.980;2023-05-09T02:30:14;101214.69;;;14.23;83.08
57412;BME280;43247;52.828;-8.980;2023-05-09T02:31:11;101215.01;;;14.23;83.24
57412;BME280;43247;52.828;-8.980;2023-05-09T02:32:15;101214.43;;;14.23;83.19
57412;BME280;43247;52.828;-8.980;2023-05-09T02:33:11;101214.23;;;14.22;83.16
57412;BME280;43247;52.828;-8.980;2023-05-09T02:34:11;101214.65;;;14.21;83.21
57412;BME280;43247;52.828;-8.980;2023-05-09T02:35:12;101214.72;;;14.21;83.19
57412;BME280;43247;52.828;-8.980;2023-05-09T02:36:13;101212.23;;;14.21;83.23
57412;BME280;43247;52.828;-8.980;2023-05-09T02:37:12;101213.11;;;14.21;83.36
57412;BME280;43247;52.828;-8.980;2023-05-09T02:38:14;101212.42;;;14.20;83.33
57412;BME280;43247;52.828;-8.980;2023-05-09T02:39:13;101210.39;;;14.19;83.23
57412;BME280;43247;52.828;-8.980;2023-05-09T02:40:14;101211.20;;;14.19;83.23
57412;BME280;43247;52.828;-8.980;2023-05-09T02:41:15;101210.22;;;14.19;83.31
57412;BME280;43247;52.828;-8.980;2023-05-09T02:42:17;101208.13;;;14.19;83.30
57412;BME280;43247;52.828;-8.980;2023-05-09T02:43:14;101206.70;;;14.18;83.22
57412;BME280;43247;52.828;-8.980;2023-05-09T02:44:14;101206.72;;;14.18;83.32
57412;BME280;43247;52.828;-8.980;2023-05-09T02:45:14;101203.82;;;14.17;83.30
57412;BME280;43247;52.828;-8.980;2023-05-09T02:46:15;101201.77;;;14.17;83.37
57412;BME280;43247;52.828;-8.980;2023-05-09T02:47:15;101201.53;;;14.17;83.31
57412;BME280;43247;52.828;-8.980;2023-05-09T02:48:15;101199.96;;;14.16;83.27
57412;BME280;43247;52.828;-8.980;2023-05-09T02:49:15;101197.23;;;14.16;83.32
57412;BME280;43247;52.828;-8.980;2023-05-09T02:50:16;101198.66;;;14.16;83.24
57412;BME280;43247;52.828;-8.980;2023-05-09T02:51:15;101196.19;;;14.15;83.25
57412;BME280;43247;52.828;-8.980;2023-05-09T02:52:15;101193.94;;;14.15;83.31
57412;BME280;43247;52.828;-8.980;2023-05-09T02:53:16;101191.92;;;14.15;83.32
57412;BME280;43247;52.828;-8.980;2023-05-09T02:54:16;101192.94;;;14.14;83.35
57412;BME280;43247;52.828;-8.980;2023-05-09T02:55:16;101189.21;;;14.14;83.36
57412;BME280;43247;52.828;-8.980;2023-05-09T02:56:16;101188.96;;;14.14;83.37
57412;BME280;43247;52.828;-8.980;2023-05-09T02:57:16;101188.97;;;14.13;83.36
57412;BME280;43247;52.828;-8.980;2023-05-09T02:58:16;101187.38;;;14.10;83.38
57412;BME280;43247;52.828;-8.980;2023-05-09T02:59:17;101185.16;;;14.06;83.08
57412;BME280;43247;52.828;-8.980;2023-05-09T03:00:18;101185.85;;;14.04;82.86
57412;BME280;43247;52.828;-8.980;2023-05-09T03:01:17;101184.15;;;14.02;82.62
57412;BME280;43247;52.828;-8.980;2023-05-09T03:02:18;101184.29;;;14.02;82.69
57412;BME280;43247;52.828;-8.980;2023-05-09T03:03:18;101183.27;;;14.01;82.61
57412;BME280;43247;52.828;-8.980;2023-05-09T03:04:19;101180.97;;;14.01;82.50
57412;BME280;43247;52.828;-8.980;2023-05-09T03:05:19;101181.39;;;14.00;82.30
57412;BME280;43247;52.828;-8.980;2023-05-09T03:06:19;101181.46;;;14.00;82.33
57412;BME280;43247;52.828;-8.980;2023-05-09T03:07:19;101179.76;;;13.99;82.38
57412;BME280;43247;52.828;-8.980;2023-05-09T03:08:20;101180.11;;;13.99;82.40
57412;BME280;43247;52.828;-8.980;2023-05-09T03:09:20;101179.32;;;14.00;82.28
57412;BME280;43247;52.828;-8.980;2023-05-09T03:10:20;101177.69;;;14.00;82.19
57412;BME280;43247;52.828;-8.980;2023-05-09T03:11:21;101176.73;;;14.00;82.16
57412;BME280;43247;52.828;-8.980;2023-05-09T03:12:20;101174.07;;;14.00;82.40
57412;BME280;43247;52.828;-8.980;2023-05-09T03:13:20;101175.00;;;14.02;82.24
57412;BME280;43247;52.828;-8.980;2023-05-09T03:14:21;101173.26;;;14.02;82.10
57412;BME280;43247;52.828;-8.980;2023-05-09T03:15:21;101170.55;;;14.02;82.20
57412;BME280;43247;52.828;-8.980;2023-05-09T03:16:21;101172.71;;;14.02;82.15
57412;BME280;43247;52.828;-8.980;2023-05-09T03:17:21;101173.74;;;14.02;82.15
57412;BME280;43247;52.828;-8.980;2023-05-09T03:18:21;101173.24;;;14.02;82.15
57412;BME280;43247;52.828;-8.980;2023-05-09T03:19:22;101174.54;;;14.02;82.22
57412;BME280;43247;52.828;-8.980;2023-05-09T03:20:22;101176.13;;;14.03;82.30
57412;BME280;43247;52.828;-8.980;2023-05-09T03:21:22;101172.95;;;14.03;82.09
57412;BME280;43247;52.828;-8.980;2023-05-09T03:22:22;101172.32;;;14.03;82.20
57412;BME280;43247;52.828;-8.980;2023-05-09T03:23:23;101171.59;;;14.04;82.21
57412;BME280;43247;52.828;-8.980;2023-05-09T03:24:25;101168.44;;;14.04;82.27
57412;BME280;43247;52.828;-8.980;2023-05-09T03:25:23;101169.52;;;14.04;82.34
57412;BME280;43247;52.828;-8.980;2023-05-09T03:26:23;101166.60;;;14.04;82.36
57412;BME280;43247;52.828;-8.980;2023-05-09T03:27:23;101167.03;;;14.04;82.23
57412;BME280;43247;52.828;-8.980;2023-05-09T03:28:23;101169.68;;;14.04;82.36
57412;BME280;43247;52.828;-8.980;2023-05-09T03:29:24;101168.42;;;14.04;82.44
57412;BME280;43247;52.828;-8.980;2023-05-09T03:30:24;101167.69;;;14.04;82.37
57412;BME280;43247;52.828;-8.980;2023-05-09T03:31:25;101165.84;;;13.99;81.86
57412;BME280;43247;52.828;-8.980;2023-05-09T03:32:26;101164.24;;;13.87;81.84
57412;BME280;43247;52.828;-8.980;2023-05-09T03:33:26;101162.41;;;13.80;81.90
57412;BME280;43247;52.828;-8.980;2023-05-09T03:34:26;101161.87;;;13.77;81.97
57412;BME280;43247;52.828;-8.980;2023-05-09T03:35:26;101161.48;;;13.77;81.90
57412;BME280;43247;52.828;-8.980;2023-05-09T03:36:27;101160.12;;;13.71;82.00
57412;BME280;43247;52.828;-8.980;2023-05-09T03:37:27;101157.68;;;13.75;81.97
57412;BME280;43247;52.828;-8.980;2023-05-09T03:38:27;101158.15;;;13.77;81.93
57412;BME280;43247;52.828;-8.980;2023-05-09T03:39:27;101159.36;;;13.76;81.93
57412;BME280;43247;52.828;-8.980;2023-05-09T03:40:28;101158.61;;;13.77;81.93
57412;BME280;43247;52.828;-8.980;2023-05-09T03:41:28;101160.05;;;13.82;81.76
57412;BME280;43247;52.828;-8.980;2023-05-09T03:42:29;101158.65;;;13.79;81.91
57412;BME280;43247;52.828;-8.980;2023-05-09T03:43:29;101161.18;;;13.80;81.90
57412;BME280;43247;52.828;-8.980;2023-05-09T03:44:30;101158.82;;;13.80;81.85
57412;BME280;43247;52.828;-8.980;2023-05-09T03:45:30;101158.05;;;13.80;81.73
57412;BME280;43247;52.828;-8.980;2023-05-09T03:46:30;101154.50;;;13.79;81.72
57412;BME280;43247;52.828;-8.980;2023-05-09T03:47:31;101154.54;;;13.75;81.85
57412;BME280;43247;52.828;-8.980;2023-05-09T03:48:31;101152.35;;;13.72;81.91
57412;BME280;43247;52.828;-8.980;2023-05-09T03:49:32;101151.37;;;13.67;81.99
57412;BME280;43247;52.828;-8.980;2023-05-09T03:50:32;101150.91;;;13.69;82.02
57412;BME280;43247;52.828;-8.980;2023-05-09T03:51:32;101150.99;;;13.71;81.75
57412;BME280;43247;52.828;-8.980;2023-05-09T03:52:32;101150.82;;;13.73;81.75
57412;BME280;43247;52.828;-8.980;2023-05-09T03:53:32;101149.73;;;13.73;81.77
57412;BME280;43247;52.828;-8.980;2023-05-09T03:54:33;101152.07;;;13.76;81.57
57412;BME280;43247;52.828;-8.980;2023-05-09T03:55:33;101149.90;;;13.77;81.56
57412;BME280;43247;52.828;-8.980;2023-05-09T03:56:34;101149.45;;;13.76;81.42
57412;BME280;43247;52.828;-8.980;2023-05-09T03:57:34;101146.19;;;13.76;81.59
57412;BME280;43247;52.828;-8.980;2023-05-09T03:58:34;101146.14;;;13.76;81.51
57412;BME280;43247;52.828;-8.980;2023-05-09T03:59:34;101148.60;;;13.80;81.44
57412;BME280;43247;52.828;-8.980;2023-05-09T04:00:34;101147.29;;;13.80;81.31
57412;BME280;43247;52.828;-8.980;2023-05-09T04:01:34;101146.59;;;13.80;81.28
57412;BME280;43247;52.828;-8.980;2023-05-09T04:02:35;101145.38;;;13.75;81.45
57412;BME280;43247;52.828;-8.980;2023-05-09T04:03:35;101145.82;;;13.75;81.59
57412;BME280;43247;52.828;-8.980;2023-05-09T04:04:35;101144.88;;;13.73;81.53
57412;BME280;43247;52.828;-8.980;2023-05-09T04:05:38;101143.72;;;13.63;81.73
57412;BME280;43247;52.828;-8.980;2023-05-09T04:06:36;101141.87;;;13.61;81.70
57412;BME280;43247;52.828;-8.980;2023-05-09T04:07:37;101141.96;;;13.68;81.52
57412;BME280;43247;52.828;-8.980;2023-05-09T04:08:37;101140.56;;;13.70;81.51
57412;BME280;43247;52.828;-8.980;2023-05-09T04:09:38;101141.77;;;13.69;81.48
57412;BME280;43247;52.828;-8.980;2023-05-09T04:10:38;101141.30;;;13.71;81.45
57412;BME280;43247;52.828;-8.980;2023-05-09T04:11:39;101141.52;;;13.70;81.42
57412;BME280;43247;52.828;-8.980;2023-05-09T04:12:39;101141.95;;;13.70;81.49
57412;BME280;43247;52.828;-8.980;2023-05-09T04:13:39;101143.35;;;13.71;81.38
57412;BME280;43247;52.828;-8.980;2023-05-09T04:14:39;101142.02;;;13.70;81.43
57412;BME280;43247;52.828;-8.980;2023-05-09T04:15:39;101142.58;;;13.73;81.35
57412;BME280;43247;52.828;-8.980;2023-05-09T04:16:40;101141.45;;;13.75;81.28
57412;BME280;43247;52.828;-8.980;2023-05-09T04:17:40;101139.15;;;13.77;81.19
57412;BME280;43247;52.828;-8.980;2023-05-09T04:18:40;101141.39;;;13.75;81.24
57412;BME280;43247;52.828;-8.980;2023-05-09T04:19:40;101141.36;;;13.75;81.24
57412;BME280;43247;52.828;-8.980;2023-05-09T04:20:40;101142.56;;;13.76;81.14
57412;BME280;43247;52.828;-8.980;2023-05-09T04:21:40;101139.99;;;13.75;81.23
57412;BME280;43247;52.828;-8.980;2023-05-09T04:22:41;101138.32;;;13.73;81.20
57412;BME280;43247;52.828;-8.980;2023-05-09T04:23:41;101139.46;;;13.76;81.24
57412;BME280;43247;52.828;-8.980;2023-05-09T04:24:41;101138.74;;;13.73;81.40
57412;BME280;43247;52.828;-8.980;2023-05-09T04:25:41;101134.88;;;13.73;81.18
57412;BME280;43247;52.828;-8.980;2023-05-09T04:26:41;101135.06;;;13.74;81.23
57412;BME280;43247;52.828;-8.980;2023-05-09T04:27:41;101134.95;;;13.75;81.21
57412;BME280;43247;52.828;-8.980;2023-05-09T04:28:41;101131.96;;;13.75;81.30
57412;BME280;43247;52.828;-8.980;2023-05-09T04:29:42;101134.39;;;13.76;81.24
57412;BME280;43247;52.828;-8.980;2023-05-09T04:30:42;101132.44;;;13.75;81.49
57412;BME280;43247;52.828;-8.980;2023-05-09T04:31:43;101129.71;;;13.75;81.39
57412;BME280;43247;52.828;-8.980;2023-05-09T04:32:43;101127.40;;;13.76;81.28
57412;BME280;43247;52.828;-8.980;2023-05-09T04:33:43;101129.15;;;13.76;81.41
57412;BME280;43247;52.828;-8.980;2023-05-09T04:34:44;101130.00;;;13.76;81.54
57412;BME280;43247;52.828;-8.980;2023-05-09T04:35:45;101128.98;;;13.78;81.52
57412;BME280;43247;52.828;-8.980;2023-05-09T04:36:45;101128.79;;;13.78;81.43
57412;BME280;43247;52.828;-8.980;2023-05-09T04:37:45;101128.75;;;13.78;81.52
57412;BME280;43247;52.828;-8.980;2023-05-09T04:38:45;101128.08;;;13.77;81.33
57412;BME280;43247;52.828;-8.980;2023-05-09T04:39:45;101129.33;;;13.77;81.46
57412;BME280;43247;52.828;-8.980;2023-05-09T04:40:46;101127.77;;;13.77;81.59
57412;BME280;43247;52.828;-8.980;2023-05-09T04:41:46;101123.77;;;13.77;81.61
57412;BME280;43247;52.828;-8.980;2023-05-09T04:42:46;101123.59;;;13.77;81.65
57412;BME280;43247;52.828;-8.980;2023-05-09T04:43:46;101122.22;;;13.77;81.61
57412;BME280;43247;52.828;-8.980;2023-05-09T04:44:47;101120.98;;;13.77;81.69
57412;BME280;43247;52.828;-8.980;2023-05-09T04:45:46;101119.00;;;13.77;81.75
57412;BME280;43247;52.828;-8.980;2023-05-09T04:46:47;101118.96;;;13.77;81.62
57412;BME280;43247;52.828;-8.980;2023-05-09T04:47:47;101120.48;;;13.77;81.72
57412;BME280;43247;52.828;-8.980;2023-05-09T04:48:47;101116.71;;;13.78;81.83
57412;BME280;43247;52.828;-8.980;2023-05-09T04:49:47;101116.63;;;13.78;81.88
57412;BME280;43247;52.828;-8.980;2023-05-09T04:50:48;101116.93;;;13.78;82.14
57412;BME280;43247;52.828;-8.980;2023-05-09T04:51:48;101116.20;;;13.78;81.93
57412;BME280;43247;52.828;-8.980;2023-05-09T04:52:48;101115.28;;;13.78;81.87
57412;BME280;43247;52.828;-8.980;2023-05-09T04:53:49;101114.63;;;13.78;81.79
57412;BME280;43247;52.828;-8.980;2023-05-09T04:54:49;101113.38;;;13.79;81.95
57412;BME280;43247;52.828;-8.980;2023-05-09T04:55:49;101111.91;;;13.79;81.91
57412;BME280;43247;52.828;-8.980;2023-05-09T04:56:49;101113.29;;;13.78;81.90
57412;BME280;43247;52.828;-8.980;2023-05-09T04:57:49;101114.11;;;13.78;81.97
57412;BME280;43247;52.828;-8.980;2023-05-09T04:58:50;101114.44;;;13.77;82.02
57412;BME280;43247;52.828;-8.980;2023-05-09T04:59:50;101113.30;;;13.76;82.02
57412;BME280;43247;52.828;-8.980;2023-05-09T05:00:50;101111.43;;;13.76;82.06
57412;BME280;43247;52.828;-8.980;2023-05-09T05:01:50;101110.78;;;13.76;82.00
57412;BME280;43247;52.828;-8.980;2023-05-09T05:02:51;101109.18;;;13.75;82.04
57412;BME280;43247;52.828;-8.980;2023-05-09T05:03:51;101108.73;;;13.74;82.16
57412;BME280;43247;52.828;-8.980;2023-05-09T05:04:51;101109.20;;;13.73;82.25
57412;BME280;43247;52.828;-8.980;2023-05-09T05:05:51;101105.51;;;13.72;82.25
57412;BME280;43247;52.828;-8.980;2023-05-09T05:06:51;101104.06;;;13.71;82.25
57412;BME280;43247;52.828;-8.980;2023-05-09T05:07:51;101102.91;;;13.73;82.20
57412;BME280;43247;52.828;-8.980;2023-05-09T05:08:52;101101.85;;;13.73;82.25
57412;BME280;43247;52.828;-8.980;2023-05-09T05:09:52;101103.08;;;13.72;82.26
57412;BME280;43247;52.828;-8.980;2023-05-09T05:10:52;101103.67;;;13.73;82.26
57412;BME280;43247;52.828;-8.980;2023-05-09T05:11:52;101102.61;;;13.73;82.30
57412;BME280;43247;52.828;-8.980;2023-05-09T05:12:52;101103.60;;;13.72;82.20